sensor_id;sensor_type;location;lat;lon;timestamp;pressure;altitude;pressure_sealevel;temperature;humidity
77366;BME280;66430;50.182;11.704;2023-10-31T00:01:08;92895.62;;;16.23;40.69
77366;BME280;66430;50.182;11.704;2023-10-31T00:03:34;92895.22;;;15.96;40.84
77366;BME280;66430;50.182;11.704;2023-10-31T00:05:59;92892.94;;;15.70;41.64
77366;BME280;66430;50.182;11.704;2023-10-31T00:08:24;92891.61;;;15.86;41.13
77366;BME280;66430;50.182;11.704;2023-10-31T00:10:50;92887.57;;;15.96;40.95
77366;BME280;66430;50.182;11.704;2023-10-31T00:13:16;92888.79;;;16.25;40.89
77366;BME280;66430;50.182;11.704;2023-10-31T00:15:41;92886.48;;;16.13;40.60
77366;BME280;66430;50.182;11.704;2023-10-31T00:18:06;92884.01;;;16.08;41.28
77366;BME280;66430;50.182;11.704;2023-10-31T00:20:31;92883.59;;;16.05;41.09
77366;BME280;66430;50.182;11.704;2023-10-31T00:22:57;92882.40;;;15.73;41.44
77366;BME280;66430;50.182;11.704;2023-10-31T00:25:23;92884.49;;;16.10;41.08
77366;BME280;66430;50.182;11.704;2023-10-31T00:27:48;92886.40;;;15.33;41.96
77366;BME280;66430;50.182;11.704;2023-10-31T00:30:13;92884.14;;;15.94;41.50
77366;BME280;66430;50.182;11.704;2023-10-31T00:32:38;92886.11;;;16.24;40.94
77366;BME280;66430;50.182;11.704;2023-10-31T00:35:04;92887.70;;;15.85;41.67
77366;BME280;66430;50.182;11.704;2023-10-31T00:37:29;92887.77;;;15.78;41.41
77366;BME280;66430;50.182;11.704;2023-10-31T00:39:55;92882.51;;;15.53;41.98
77366;BME280;66430;50.182;11.704;2023-10-31T00:42:20;92882.54;;;15.87;41.31
77366;BME280;66430;50.182;11.704;2023-10-31T00:44:45;92885.02;;;16.16;41.24
77366;BME280;66430;50.182;11.704;2023-10-31T00:47:11;92888.66;;;16.16;41.43
77366;BME280;66430;50.182;11.704;2023-10-31T00:49:36;92884.47;;;15.46;41.59
77366;BME280;66430;50.182;11.704;2023-10-31T00:52:02;92883.32;;;15.85;41.28
77366;BME280;66430;50.182;11.704;2023-10-31T00:54:27;92885.21;;;15.70;41.65
77366;BME280;66430;50.182;11.704;2023-10-31T00:56:53;92890.33;;;15.14;42.12
77366;BME280;66430;50.182;11.704;2023-10-31T00:59:18;92887.81;;;15.91;41.71
77366;BME280;66430;50.182;11.704;2023-10-31T01:01:43;92883.49;;;16.15;41.12
77366;BME280;66430;50.182;11.704;2023-10-31T01:04:09;92883.68;;;15.91;41.63
77366;BME280;66430;50.182;11.704;2023-10-31T01:06:37;92879.95;;;16.00;41.62
77366;BME280;66430;50.182;11.704;2023-10-31T01:08:59;92884.07;;;16.30;40.81
77366;BME280;66430;50.182;11.704;2023-10-31T01:11:25;92883.05;;;15.82;41.29
77366;BME280;66430;50.182;11.704;2023-10-31T01:13:50;92882.40;;;15.81;41.83
77366;BME280;66430;50.182;11.704;2023-10-31T01:16:16;92889.68;;;15.22;42.59
77366;BME280;66430;50.182;11.704;2023-10-31T01:18:41;92892.10;;;15.11;42.28
77366;BME280;66430;50.182;11.704;2023-10-31T01:21:06;92895.51;;;15.28;41.92
77366;BME280;66430;50.182;11.704;2023-10-31T01:23:32;92888.39;;;15.06;42.64
77366;BME280;66430;50.182;11.704;2023-10-31T01:25:57;92889.03;;;14.76;43.19
77366;BME280;66430;50.182;11.704;2023-10-31T01:28:22;92887.25;;;15.49;42.08
77366;BME280;66430;50.182;11.704;2023-10-31T01:30:48;92889.24;;;15.37;42.25
77366;BME280;66430;50.182;11.704;2023-10-31T01:33:14;92891.71;;;15.51;42.02
77366;BME280;66430;50.182;11.704;2023-10-31T01:35:39;92895.66;;;15.13;41.70
77366;BME280;66430;50.182;11.704;2023-10-31T01:38:05;92898.71;;;14.89;42.80
77366;BME280;66430;50.182;11.704;2023-10-31T01:40:30;92898.10;;;14.79;43.11
77366;BME280;66430;50.182;11.704;2023-10-31T01:42:56;92894.60;;;14.55;43.23
77366;BME280;66430;50.182;11.704;2023-10-31T01:45:21;92889.79;;;14.66;42.91
77366;BME280;66430;50.182;11.704;2023-10-31T01:47:48;92888.28;;;14.55;43.23
77366;BME280;66430;50.182;11.704;2023-10-31T01:50:12;92892.60;;;14.77;42.84
77366;BME280;66430;50.182;11.704;2023-10-31T01:52:39;92902.33;;;14.21;43.81
77366;BME280;66430;50.182;11.704;2023-10-31T01:55:04;92906.63;;;14.98;43.28
77366;BME280;66430;50.182;11.704;2023-10-31T01:57:28;92895.12;;;14.85;43.22
77366;BME280;66430;50.182;11.704;2023-10-31T01:59:54;92895.40;;;14.65;42.96
77366;BME280;66430;50.182;11.704;2023-10-31T02:02:20;92894.99;;;14.73;42.91
77366;BME280;66430;50.182;11.704;2023-10-31T02:04:45;92899.80;;;14.30;43.47
77366;BME280;66430;50.182;11.704;2023-10-31T02:07:10;92898.92;;;14.07;44.47
77366;BME280;66430;50.182;11.704;2023-10-31T02:09:36;92895.02;;;14.04;44.11
77366;BME280;66430;50.182;11.704;2023-10-31T02:12:01;92890.15;;;14.89;43.19
77366;BME280;66430;50.182;11.704;2023-10-31T02:14:26;92887.29;;;14.80;42.80
77366;BME280;66430;50.182;11.704;2023-10-31T02:16:52;92889.69;;;14.24;43.55
77366;BME280;66430;50.182;11.704;2023-10-31T02:19:20;92888.47;;;14.22;43.64
77366;BME280;66430;50.182;11.704;2023-10-31T02:21:43;92889.69;;;14.08;43.80
77366;BME280;66430;50.182;11.704;2023-10-31T02:24:08;92885.97;;;14.52;43.21
77366;BME280;66430;50.182;11.704;2023-10-31T02:26:34;92892.24;;;14.27;43.78
77366;BME280;66430;50.182;11.704;2023-10-31T02:28:59;92891.96;;;14.46;43.39
77366;BME280;66430;50.182;11.704;2023-10-31T02:31:25;92903.83;;;13.76;44.71
77366;BME280;66430;50.182;11.704;2023-10-31T02:33:52;92908.31;;;14.58;42.97
77366;BME280;66430;50.182;11.704;2023-10-31T02:36:16;92905.21;;;14.47;43.49
77366;BME280;66430;50.182;11.704;2023-10-31T02:38:41;92902.48;;;14.64;42.86
77366;BME280;66430;50.182;11.704;2023-10-31T02:41:06;92902.78;;;14.84;42.77
77366;BME280;66430;50.182;11.704;2023-10-31T02:43:31;92901.32;;;15.16;42.07
77366;BME280;66430;50.182;11.704;2023-10-31T02:45:57;92902.05;;;15.45;42.15
77366;BME280;66430;50.182;11.704;2023-10-31T02:48:23;92893.59;;;15.18;42.04
77366;BME280;66430;50.182;11.704;2023-10-31T02:50:48;92896.69;;;15.25;41.68
77366;BME280;66430;50.182;11.704;2023-10-31T02:53:13;92901.52;;;15.17;42.09
77366;BME280;66430;50.182;11.704;2023-10-31T02:55:39;92912.53;;;14.63;42.99
77366;BME280;66430;50.182;11.704;2023-10-31T02:58:04;92910.07;;;14.22;43.29
77366;BME280;66430;50.182;11.704;2023-10-31T03:00:30;92916.04;;;14.14;43.64
77366;BME280;66430;50.182;11.704;2023-10-31T03:02:55;92915.63;;;14.14;43.36
77366;BME280;66430;50.182;11.704;2023-10-31T03:05:20;92918.15;;;13.80;43.15
77366;BME280;66430;50.182;11.704;2023-10-31T03:07:46;92918.06;;;14.52;42.41
77366;BME280;66430;50.182;11.704;2023-10-31T03:10:12;92935.87;;;13.61;42.85
77366;BME280;66430;50.182;11.704;2023-10-31T03:12:37;92941.01;;;13.67;43.60
77366;BME280;66430;50.182;11.704;2023-10-31T03:15:03;92935.79;;;13.45;43.73
77366;BME280;66430;50.182;11.704;2023-10-31T03:17:28;92945.47;;;13.66;43.59
77366;BME280;66430;50.182;11.704;2023-10-31T03:19:53;92952.04;;;13.89;42.67
77366;BME280;66430;50.182;11.704;2023-10-31T03:22:18;92949.23;;;13.65;43.18
77366;BME280;66430;50.182;11.704;2023-10-31T03:24:44;92953.82;;;13.67;43.03
77366;BME280;66430;50.182;11.704;2023-10-31T03:27:10;92948.70;;;13.97;43.06
77366;BME280;66430;50.182;11.704;2023-10-31T03:29:35;92953.86;;;13.70;42.97
77366;BME280;66430;50.182;11.704;2023-10-31T03:32:00;92953.71;;;13.38;43.78
77366;BME280;66430;50.182;11.704;2023-10-31T03:34:26;92960.70;;;13.39;43.36
77366;BME280;66430;50.182;11.704;2023-10-31T03:36:51;92960.81;;;14.16;42.76
77366;BME280;66430;50.182;11.704;2023-10-31T03:39:17;92968.57;;;14.03;42.91
77366;BME280;66430;50.182;11.704;2023-10-31T03:41:42;92966.53;;;13.88;42.66
77366;BME280;66430;50.182;11.704;2023-10-31T03:44:08;92968.22;;;13.84;42.86
77366;BME280;66430;50.182;11.704;2023-10-31T03:46:33;92976.46;;;13.42;43.70
77366;BME280;66430;50.182;11.704;2023-10-31T03:48:58;92968.88;;;13.81;42.73
77366;BME280;66430;50.182;11.704;2023-10-31T03:51:24;92961.99;;;13.95;42.41
77366;BME280;66430;50.182;11.704;2023-10-31T03:53:49;92965.10;;;13.37;43.00
77366;BME280;66430;50.182;11.704;2023-10-31T03:56:15;92959.23;;;14.00;42.33
77366;BME280;66430;50.182;11.704;2023-10-31T03:58:42;92963.85;;;13.43;42.84
77366;BME280;66430;50.182;11.704;2023-10-31T04:01:05;92967.32;;;13.86;42.50
77366;BME280;66430;50.182;11.704;2023-10-31T04:03:31;92967.15;;;13.98;42.19
77366;BME280;66430;50.182;11.704;2023-10-31T04:05:59;92970.84;;;13.21;43.27
77366;BME280;66430;50.182;11.704;2023-10-31T04:08:22;92974.39;;;13.87;42.63
77366;BME280;66430;50.182;11.704;2023-10-31T04:10:47;92979.38;;;13.77;42.57
77366;BME280;66430;50.182;11.704;2023-10-31T04:13:18;92986.78;;;14.24;41.62
77366;BME280;66430;50.182;11.704;2023-10-31T04:15:38;92992.94;;;14.08;42.01
77366;BME280;66430;50.182;11.704;2023-10-31T04:18:04;92992.33;;;13.98;42.08
77366;BME280;66430;50.182;11.704;2023-10-31T04:20:29;92995.13;;;13.65;42.72
77366;BME280;66430;50.182;11.704;2023-10-31T04:22:54;92993.90;;;13.19;43.30
77366;BME280;66430;50.182;11.704;2023-10-31T04:25:20;92993.73;;;13.50;42.76
77366;BME280;66430;50.182;11.704;2023-10-31T04:27:45;92997.64;;;13.33;42.69
77366;BME280;66430;50.182;11.704;2023-10-31T04:30:12;92996.20;;;13.71;41.95
77366;BME280;66430;50.182;11.704;2023-10-31T04:32:37;93001.43;;;13.53;42.45
77366;BME280;66430;50.182;11.704;2023-10-31T04:35:02;92999.59;;;13.48;42.19
77366;BME280;66430;50.182;11.704;2023-10-31T04:37:27;92999.17;;;13.65;42.00
77366;BME280;66430;50.182;11.704;2023-10-31T04:39:53;93000.30;;;13.37;42.15
77366;BME280;66430;50.182;11.704;2023-10-31T04:42:18;92993.90;;;13.57;41.66
77366;BME280;66430;50.182;11.704;2023-10-31T04:44:44;92993.38;;;13.42;41.73
77366;BME280;66430;50.182;11.704;2023-10-31T04:47:09;92986.91;;;13.44;42.11
77366;BME280;66430;50.182;11.704;2023-10-31T04:49:35;92992.40;;;13.44;41.63
77366;BME280;66430;50.182;11.704;2023-10-31T04:52:00;92994.13;;;13.34;41.92
77366;BME280;66430;50.182;11.704;2023-10-31T04:54:25;92999.44;;;12.85;42.43
77366;BME280;66430;50.182;11.704;2023-10-31T04:56:51;92995.94;;;13.29;41.61
77366;BME280;66430;50.182;11.704;2023-10-31T04:59:17;93006.54;;;13.25;41.45
77366;BME280;66430;50.182;11.704;2023-10-31T05:04:07;93017.37;;;13.00;42.06
77366;BME280;66430;50.182;11.704;2023-10-31T05:06:32;93014.04;;;12.99;42.08
77366;BME280;66430;50.182;11.704;2023-10-31T05:08:58;93019.28;;;12.57;42.94
77366;BME280;66430;50.182;11.704;2023-10-31T05:11:24;93025.72;;;12.51;43.09
77366;BME280;66430;50.182;11.704;2023-10-31T05:13:51;93023.17;;;12.16;43.10
77366;BME280;66430;50.182;11.704;2023-10-31T05:16:14;93028.46;;;12.63;42.48
77366;BME280;66430;50.182;11.704;2023-10-31T05:18:40;93023.86;;;12.82;42.46
77366;BME280;66430;50.182;11.704;2023-10-31T05:21:05;93034.34;;;12.36;43.07
77366;BME280;66430;50.182;11.704;2023-10-31T05:23:31;93038.08;;;12.08;43.11
77366;BME280;66430;50.182;11.704;2023-10-31T05:25:56;93040.18;;;13.00;42.13
77366;BME280;66430;50.182;11.704;2023-10-31T05:28:22;93040.74;;;13.14;41.93
77366;BME280;66430;50.182;11.704;2023-10-31T05:30:47;93043.62;;;12.82;42.12
77366;BME280;66430;50.182;11.704;2023-10-31T05:33:14;93047.29;;;12.32;41.94
77366;BME280;66430;50.182;11.704;2023-10-31T05:35:38;93058.90;;;12.54;42.03
77366;BME280;66430;50.182;11.704;2023-10-31T05:38:04;93060.86;;;12.78;41.99
77366;BME280;66430;50.182;11.704;2023-10-31T05:40:29;93069.62;;;12.57;42.28
77366;BME280;66430;50.182;11.704;2023-10-31T05:42:55;93079.59;;;12.74;42.05
77366;BME280;66430;50.182;11.704;2023-10-31T05:45:20;93076.88;;;12.96;41.51
77366;BME280;66430;50.182;11.704;2023-10-31T05:47:45;93069.76;;;12.78;41.40
77366;BME280;66430;50.182;11.704;2023-10-31T05:50:11;93071.15;;;12.61;41.90
77366;BME280;66430;50.182;11.704;2023-10-31T05:52:37;93082.73;;;12.51;41.80
77366;BME280;66430;50.182;11.704;2023-10-31T05:55:02;93081.22;;;12.39;41.55
77366;BME280;66430;50.182;11.704;2023-10-31T05:57:27;93090.54;;;12.67;42.00
77366;BME280;66430;50.182;11.704;2023-10-31T05:59:53;93098.96;;;12.64;41.48
77366;BME280;66430;50.182;11.704;2023-10-31T06:02:18;93100.48;;;12.96;41.15
77366;BME280;66430;50.182;11.704;2023-10-31T06:04:44;93099.87;;;12.36;41.50
77366;BME280;66430;50.182;11.704;2023-10-31T06:07:10;93106.23;;;12.85;41.54
77366;BME280;66430;50.182;11.704;2023-10-31T06:09:35;93111.39;;;12.68;41.39
77366;BME280;66430;50.182;11.704;2023-10-31T06:12:01;93111.57;;;13.01;40.82
77366;BME280;66430;50.182;11.704;2023-10-31T06:14:26;93115.57;;;12.08;42.24
77366;BME280;66430;50.182;11.704;2023-10-31T06:16:51;93120.77;;;12.58;41.38
77366;BME280;66430;50.182;11.704;2023-10-31T06:19:17;93126.52;;;12.63;41.83
77366;BME280;66430;50.182;11.704;2023-10-31T06:21:42;93127.56;;;12.25;41.85
77366;BME280;66430;50.182;11.704;2023-10-31T06:24:08;93131.55;;;12.96;41.13
77366;BME280;66430;50.182;11.704;2023-10-31T06:26:33;93132.81;;;13.17;40.70
77366;BME280;66430;50.182;11.704;2023-10-31T06:28:59;93138.07;;;12.22;41.67
77366;BME280;66430;50.182;11.704;2023-10-31T06:31:24;93143.95;;;12.55;41.44
77366;BME280;66430;50.182;11.704;2023-10-31T06:33:51;93147.61;;;12.54;41.75
77366;BME280;66430;50.182;11.704;2023-10-31T06:36:15;93142.87;;;13.18;40.43
77366;BME280;66430;50.182;11.704;2023-10-31T06:38:40;93151.82;;;13.46;40.50
77366;BME280;66430;50.182;11.704;2023-10-31T06:41:06;93148.40;;;12.38;41.64
77366;BME280;66430;50.182;11.704;2023-10-31T06:43:31;93157.05;;;13.38;40.46
77366;BME280;66430;50.182;11.704;2023-10-31T06:45:57;93157.10;;;13.14;40.62
77366;BME280;66430;50.182;11.704;2023-10-31T06:48:22;93158.54;;;12.58;41.45
77366;BME280;66430;50.182;11.704;2023-10-31T06:50:49;93167.56;;;12.38;41.30
77366;BME280;66430;50.182;11.704;2023-10-31T06:53:13;93167.08;;;12.48;41.54
77366;BME280;66430;50.182;11.704;2023-10-31T06:55:39;93169.30;;;12.57;41.51
77366;BME280;66430;50.182;11.704;2023-10-31T06:58:06;93175.84;;;12.13;42.33
77366;BME280;66430;50.182;11.704;2023-10-31T07:00:30;93172.38;;;12.37;42.10
77366;BME280;66430;50.182;11.704;2023-10-31T07:02:55;93182.68;;;12.53;41.81
77366;BME280;66430;50.182;11.704;2023-10-31T07:05:21;93185.41;;;12.51;41.70
77366;BME280;66430;50.182;11.704;2023-10-31T07:07:46;93185.10;;;13.20;41.17
77366;BME280;66430;50.182;11.704;2023-10-31T07:10:12;93194.43;;;12.78;42.20
77366;BME280;66430;50.182;11.704;2023-10-31T07:12:37;93201.79;;;12.51;41.67
77366;BME280;66430;50.182;11.704;2023-10-31T07:15:03;93207.18;;;12.69;41.34
77366;BME280;66430;50.182;11.704;2023-10-31T07:17:28;93209.10;;;12.45;41.66
77366;BME280;66430;50.182;11.704;2023-10-31T07:19:53;93212.63;;;12.25;42.06
77366;BME280;66430;50.182;11.704;2023-10-31T07:22:19;93218.64;;;12.57;41.43
77366;BME280;66430;50.182;11.704;2023-10-31T07:24:45;93218.17;;;13.11;41.07
77366;BME280;66430;50.182;11.704;2023-10-31T07:27:10;93221.01;;;12.81;41.10
77366;BME280;66430;50.182;11.704;2023-10-31T07:29:38;93225.15;;;12.94;40.87
77366;BME280;66430;50.182;11.704;2023-10-31T07:32:01;93228.94;;;12.26;41.56
77366;BME280;66430;50.182;11.704;2023-10-31T07:34:28;93227.20;;;12.87;40.83
77366;BME280;66430;50.182;11.704;2023-10-31T07:36:52;93229.09;;;12.89;41.11
77366;BME280;66430;50.182;11.704;2023-10-31T07:39:17;93235.16;;;13.30;41.23
77366;BME280;66430;50.182;11.704;2023-10-31T07:41:42;93235.83;;;12.71;41.61
77366;BME280;66430;50.182;11.704;2023-10-31T07:44:08;93236.13;;;12.80;41.53
77366;BME280;66430;50.182;11.704;2023-10-31T07:46:34;93237.66;;;12.98;41.12
77366;BME280;66430;50.182;11.704;2023-10-31T07:48:59;93243.49;;;12.86;41.21
77366;BME280;66430;50.182;11.704;2023-10-31T07:51:24;93248.82;;;12.11;41.97
77366;BME280;66430;50.182;11.704;2023-10-31T07:53:50;93255.12;;;12.01;42.30
77366;BME280;66430;50.182;11.704;2023-10-31T07:56:16;93253.86;;;12.44;41.61
77366;BME280;66430;50.182;11.704;2023-10-31T07:58:41;93252.47;;;12.54;41.52
77366;BME280;66430;50.182;11.704;2023-10-31T08:01:07;93251.30;;;13.08;40.98
77366;BME280;66430;50.182;11.704;2023-10-31T08:03:32;93257.42;;;12.50;41.62
77366;BME280;66430;50.182;11.704;2023-10-31T08:05:57;93264.05;;;12.87;41.37
77366;BME280;66430;50.182;11.704;2023-10-31T08:08:23;93267.47;;;12.32;41.61
77366;BME280;66430;50.182;11.704;2023-10-31T08:10:48;93267.85;;;12.45;41.90
77366;BME280;66430;50.182;11.704;2023-10-31T08:13:14;93267.98;;;12.84;41.28
77366;BME280;66430;50.182;11.704;2023-10-31T08:15:39;93272.42;;;12.89;41.00
77366;BME280;66430;50.182;11.704;2023-10-31T08:18:05;93272.09;;;12.82;41.27
77366;BME280;66430;50.182;11.704;2023-10-31T08:20:30;93271.30;;;12.89;40.90
77366;BME280;66430;50.182;11.704;2023-10-31T08:22:56;93273.76;;;13.07;41.01
77366;BME280;66430;50.182;11.704;2023-10-31T08:25:21;93271.84;;;13.21;40.51
77366;BME280;66430;50.182;11.704;2023-10-31T08:27:46;93275.34;;;13.36;40.39
77366;BME280;66430;50.182;11.704;2023-10-31T08:30:12;93283.39;;;12.20;42.30
77366;BME280;66430;50.182;11.704;2023-10-31T08:32:37;93284.77;;;12.59;41.75
77366;BME280;66430;50.182;11.704;2023-10-31T08:35:03;93281.74;;;12.22;41.66
77366;BME280;66430;50.182;11.704;2023-10-31T08:37:28;93289.10;;;11.97;42.51
77366;BME280;66430;50.182;11.704;2023-10-31T08:39:54;93292.17;;;12.71;41.45
77366;BME280;66430;50.182;11.704;2023-10-31T08:42:19;93291.48;;;12.93;41.32
77366;BME280;66430;50.182;11.704;2023-10-31T08:44:45;93287.59;;;12.45;41.91
77366;BME280;66430;50.182;11.704;2023-10-31T08:47:10;93291.12;;;12.56;42.38
77366;BME280;66430;50.182;11.704;2023-10-31T08:49:36;93302.41;;;12.07;42.16
77366;BME280;66430;50.182;11.704;2023-10-31T08:52:01;93303.58;;;12.97;41.85
77366;BME280;66430;50.182;11.704;2023-10-31T08:54:27;93302.41;;;13.15;41.11
77366;BME280;66430;50.182;11.704;2023-10-31T08:56:52;93302.36;;;12.99;41.61
77366;BME280;66430;50.182;11.704;2023-10-31T08:59:18;93302.27;;;12.37;41.86
77366;BME280;66430;50.182;11.704;2023-10-31T09:01:43;93306.20;;;12.97;41.70
77366;BME280;66430;50.182;11.704;2023-10-31T09:04:08;93307.84;;;13.09;41.28
77366;BME280;66430;50.182;11.704;2023-10-31T09:06:34;93306.19;;;13.16;41.09
77366;BME280;66430;50.182;11.704;2023-10-31T09:08:59;93309.90;;;13.01;41.32
77366;BME280;66430;50.182;11.704;2023-10-31T09:11:25;93309.58;;;13.32;41.22
77366;BME280;66430;50.182;11.704;2023-10-31T09:13:50;93314.86;;;13.07;40.95
77366;BME280;66430;50.182;11.704;2023-10-31T09:16:21;93317.94;;;13.23;40.94
77366;BME280;66430;50.182;11.704;2023-10-31T09:18:41;93309.77;;;13.48;40.47
77366;BME280;66430;50.182;11.704;2023-10-31T09:21:07;93312.89;;;13.29;40.08
77366;BME280;66430;50.182;11.704;2023-10-31T09:23:32;93314.28;;;13.10;40.82
77366;BME280;66430;50.182;11.704;2023-10-31T09:25:58;93312.55;;;13.22;40.61
77366;BME280;66430;50.182;11.704;2023-10-31T09:28:23;93315.52;;;12.79;40.96
77366;BME280;66430;50.182;11.704;2023-10-31T09:30:49;93309.72;;;13.21;40.53
77366;BME280;66430;50.182;11.704;2023-10-31T09:33:14;93311.33;;;12.70;41.49
77366;BME280;66430;50.182;11.704;2023-10-31T09:35:40;93312.22;;;12.96;41.34
77366;BME280;66430;50.182;11.704;2023-10-31T09:38:05;93311.65;;;13.04;40.76
77366;BME280;66430;50.182;11.704;2023-10-31T09:40:31;93311.39;;;12.70;41.16
77366;BME280;66430;50.182;11.704;2023-10-31T09:42:56;93310.55;;;12.76;41.84
77366;BME280;66430;50.182;11.704;2023-10-31T09:45:22;93312.92;;;13.40;40.78
77366;BME280;66430;50.182;11.704;2023-10-31T09:47:47;93315.98;;;13.18;40.89
77366;BME280;66430;50.182;11.704;2023-10-31T09:50:12;93322.26;;;12.34;42.37
77366;BME280;66430;50.182;11.704;2023-10-31T09:52:38;93316.53;;;13.00;41.21
77366;BME280;66430;50.182;11.704;2023-10-31T09:55:04;93309.12;;;13.21;40.34
77366;BME280;66430;50.182;11.704;2023-10-31T09:57:29;93320.16;;;12.95;40.43
77366;BME280;66430;50.182;11.704;2023-10-31T09:59:54;93318.86;;;13.16;40.79
77366;BME280;66430;50.182;11.704;2023-10-31T10:02:20;93314.67;;;13.41;40.44
77366;BME280;66430;50.182;11.704;2023-10-31T10:04:45;93316.82;;;12.85;41.19
77366;BME280;66430;50.182;11.704;2023-10-31T10:07:16;93315.06;;;13.35;40.48
77366;BME280;66430;50.182;11.704;2023-10-31T10:09:37;93319.05;;;12.62;41.14
77366;BME280;66430;50.182;11.704;2023-10-31T10:12:02;93318.47;;;13.00;40.75
77366;BME280;66430;50.182;11.704;2023-10-31T10:14:27;93316.20;;;13.15;40.59
77366;BME280;66430;50.182;11.704;2023-10-31T10:16:52;93323.23;;;12.77;41.15
77366;BME280;66430;50.182;11.704;2023-10-31T10:19:19;93323.39;;;13.64;40.74
77366;BME280;66430;50.182;11.704;2023-10-31T10:21:48;93323.98;;;12.99;40.90
77366;BME280;66430;50.182;11.704;2023-10-31T10:24:09;93325.78;;;13.79;39.81
77366;BME280;66430;50.182;11.704;2023-10-31T10:26:34;93337.74;;;13.20;40.30
77366;BME280;66430;50.182;11.704;2023-10-31T10:29:00;93335.97;;;13.04;40.64
77366;BME280;66430;50.182;11.704;2023-10-31T10:31:25;93333.12;;;13.30;40.88
77366;BME280;66430;50.182;11.704;2023-10-31T10:33:51;93333.61;;;13.49;40.52
77366;BME280;66430;50.182;11.704;2023-10-31T10:36:17;93333.53;;;13.47;40.61
77366;BME280;66430;50.182;11.704;2023-10-31T10:38:43;93339.02;;;13.55;40.41
77366;BME280;66430;50.182;11.704;2023-10-31T10:41:09;93352.13;;;13.16;40.94
77366;BME280;66430;50.182;11.704;2023-10-31T10:43:37;93352.27;;;13.26;40.56
77366;BME280;66430;50.182;11.704;2023-10-31T10:45:59;93357.08;;;13.54;39.91
77366;BME280;66430;50.182;11.704;2023-10-31T10:48:26;93362.46;;;13.28;40.05
77366;BME280;66430;50.182;11.704;2023-10-31T10:50:56;93359.47;;;12.64;39.74
77366;BME280;66430;50.182;11.704;2023-10-31T10:53:21;93361.79;;;13.70;39.19
77366;BME280;66430;50.182;11.704;2023-10-31T10:55:44;93352.13;;;13.53;39.42
77366;BME280;66430;50.182;11.704;2023-10-31T10:58:17;93354.82;;;13.74;39.36
77366;BME280;66430;50.182;11.704;2023-10-31T11:00:31;93349.51;;;13.12;39.86
77366;BME280;66430;50.182;11.704;2023-10-31T11:02:57;93354.08;;;13.82;39.50
77366;BME280;66430;50.182;11.704;2023-10-31T11:05:23;93354.17;;;13.58;41.37
77366;BME280;66430;50.182;11.704;2023-10-31T11:07:47;93352.10;;;13.70;41.13
77366;BME280;66430;50.182;11.704;2023-10-31T11:10:13;93358.49;;;13.49;41.09
77366;BME280;66430;50.182;11.704;2023-10-31T11:12:38;93361.22;;;14.10;40.62
77366;BME280;66430;50.182;11.704;2023-10-31T11:15:05;93361.12;;;13.95;40.47
77366;BME280;66430;50.182;11.704;2023-10-31T11:17:31;93362.62;;;14.22;39.90
77366;BME280;66430;50.182;11.704;2023-10-31T11:19:55;93368.52;;;13.97;39.85
77366;BME280;66430;50.182;11.704;2023-10-31T11:22:20;93374.86;;;13.89;39.45
77366;BME280;66430;50.182;11.704;2023-10-31T11:24:45;93380.59;;;13.83;39.41
77366;BME280;66430;50.182;11.704;2023-10-31T11:27:11;93390.71;;;13.83;39.46
77366;BME280;66430;50.182;11.704;2023-10-31T11:29:37;93392.55;;;13.75;39.02
77366;BME280;66430;50.182;11.704;2023-10-31T11:32:01;93393.78;;;14.07;39.10
77366;BME280;66430;50.182;11.704;2023-10-31T11:34:29;93399.44;;;13.72;39.65
77366;BME280;66430;50.182;11.704;2023-10-31T11:36:52;93403.85;;;13.98;39.29
77366;BME280;66430;50.182;11.704;2023-10-31T11:39:19;93401.16;;;13.65;39.59
77366;BME280;66430;50.182;11.704;2023-10-31T11:41:48;93404.61;;;14.00;38.94
77366;BME280;66430;50.182;11.704;2023-10-31T11:44:09;93416.19;;;13.73;39.39
77366;BME280;66430;50.182;11.704;2023-10-31T11:46:35;93418.16;;;13.09;40.23
77366;BME280;66430;50.182;11.704;2023-10-31T11:49:00;93415.94;;;13.45;39.96
77366;BME280;66430;50.182;11.704;2023-10-31T11:51:25;93415.92;;;13.34;40.18
77366;BME280;66430;50.182;11.704;2023-10-31T11:53:50;93420.06;;;13.76;40.11
77366;BME280;66430;50.182;11.704;2023-10-31T11:56:17;93424.03;;;13.65;40.92
77366;BME280;66430;50.182;11.704;2023-10-31T11:58:42;93426.46;;;12.61;41.54
77366;BME280;66430;50.182;11.704;2023-10-31T12:01:09;93424.38;;;13.66;40.27
77366;BME280;66430;50.182;11.704;2023-10-31T12:03:38;93416.66;;;13.61;40.54
77366;BME280;66430;50.182;11.704;2023-10-31T12:05:59;93411.68;;;13.37;40.87
77366;BME280;66430;50.182;11.704;2023-10-31T12:08:26;93412.09;;;13.56;40.41
77366;BME280;66430;50.182;11.704;2023-10-31T12:10:49;93413.22;;;12.63;41.62
77366;BME280;66430;50.182;11.704;2023-10-31T12:13:14;93404.87;;;13.04;41.25
77366;BME280;66430;50.182;11.704;2023-10-31T12:18:05;93403.63;;;13.21;40.82
77366;BME280;66430;50.182;11.704;2023-10-31T12:20:31;93412.87;;;13.39;40.82
77366;BME280;66430;50.182;11.704;2023-10-31T12:23:03;93421.47;;;13.13;40.84
77366;BME280;66430;50.182;11.704;2023-10-31T12:25:22;93425.17;;;13.16;41.12
77366;BME280;66430;50.182;11.704;2023-10-31T12:27:48;93430.26;;;13.80;40.67
77366;BME280;66430;50.182;11.704;2023-10-31T12:30:14;93439.74;;;13.39;41.16
77366;BME280;66430;50.182;11.704;2023-10-31T12:32:39;93441.94;;;12.38;42.06
77366;BME280;66430;50.182;11.704;2023-10-31T12:35:04;93439.76;;;13.32;41.03
77366;BME280;66430;50.182;11.704;2023-10-31T12:37:29;93445.14;;;12.69;42.24
77366;BME280;66430;50.182;11.704;2023-10-31T12:39:56;93444.49;;;12.74;42.27
77366;BME280;66430;50.182;11.704;2023-10-31T12:42:20;93446.52;;;13.27;41.86
77366;BME280;66430;50.182;11.704;2023-10-31T12:44:45;93444.82;;;13.45;41.75